Terminal Aerodrome Forecast
Issued by NWS

Home | Current Version | Previous Version | Graphics & Text | Print | Product List | Glossary On
Versions: 1 2 3 4 5 6 7 8 9 10 11 12 13 14 15 16 17 18 19 20 21 22 23 24 25 26 27 28 29 30 31 32 33 34 35 36 37 38
000
FTUS43 KGRB 221720
TAFRHI
TAF
KRHI 221720Z 2218/2318 23006KT P6SM VCSH SCT025 BKN060
      TEMPO 2218/2222 2SM SHRA BKN025
     FM222200 32007KT P6SM SHRA SCT035 BKN060
      TEMPO 2222/2301 4SM SHRA OVC035
     FM230100 34006KT 4SM SHRA BKN070
     FM230400 30004KT P6SM BKN090
     FM231600 27012G21KT P6SM SCT040=

USA.gov is the U.S. government's official web portal to all federal, state and local government web resources and services.